createdAt,value
2022-10-31T00:00:48.323Z,51.78
2022-10-31T00:03:15.738Z,52.35
2022-10-31T00:05:47.938Z,30.23
2022-10-31T00:08:15.317Z,22.08
2022-10-31T00:10:43.026Z,15.93
2022-10-31T00:13:11.028Z,18.05
2022-10-31T00:15:39.811Z,14.80
2022-10-31T00:18:08.049Z,12.07
2022-10-31T00:20:35.437Z,23.30
2022-10-31T00:23:03.511Z,17.23
2022-10-31T00:25:35.030Z,17.42
2022-10-31T00:28:02.154Z,13.77
2022-10-31T00:30:29.095Z,12.60
2022-10-31T00:32:55.864Z,14.32
2022-10-31T00:35:22.704Z,22.77
2022-10-31T00:37:49.271Z,19.40
2022-10-31T00:40:15.907Z,18.48
2022-10-31T00:42:42.600Z,17.60
2022-10-31T00:45:10.784Z,21.50
2022-10-31T00:47:38.084Z,27.63
2022-10-31T00:50:09.346Z,25.40
2022-10-31T00:52:35.967Z,23.85
2022-10-31T00:55:02.732Z,17.67
2022-10-31T00:57:29.369Z,20.95
2022-10-31T00:59:55.999Z,21.13
2022-10-31T01:02:22.823Z,24.45
2022-10-31T01:04:49.554Z,15.23
2022-10-31T01:07:16.231Z,21.17
2022-10-31T01:09:42.833Z,20.40
2022-10-31T01:12:09.627Z,20.60
2022-10-31T01:14:36.320Z,17.33
2022-10-31T01:17:03.016Z,33.95
2022-10-31T01:19:29.843Z,27.97
2022-10-31T01:21:56.479Z,41.90
2022-10-31T01:24:23.139Z,51.45
2022-10-31T01:26:49.759Z,31.27
2022-10-31T01:29:16.454Z,24.60
2022-10-31T01:31:43.108Z,21.73
2022-10-31T01:34:14.665Z,49.38
2022-10-31T01:36:42.108Z,23.35
2022-10-31T01:39:12.231Z,22.65
2022-10-31T01:41:42.458Z,21.17
2022-10-31T01:44:14.767Z,23.23
2022-10-31T01:46:47.775Z,18.40
2022-10-31T01:49:19.364Z,20.77
2022-10-31T01:52:15.010Z,14.77
2022-10-31T01:54:46.635Z,15.05
2022-10-31T01:57:15.819Z,24.67
2022-10-31T01:59:50.279Z,18.08
2022-10-31T02:02:19.618Z,14.23
2022-10-31T02:04:48.432Z,15.15
2022-10-31T02:07:19.338Z,14.82
2022-10-31T02:09:48.641Z,18.40
2022-10-31T02:12:16.911Z,20.45
2022-10-31T02:14:43.647Z,18.98
2022-10-31T02:17:10.334Z,20.35
2022-10-31T02:19:49.730Z,14.90
2022-10-31T02:22:40.119Z,13.70
2022-10-31T02:25:27.327Z,16.27
2022-10-31T02:27:59.917Z,14.88
2022-10-31T02:30:38.342Z,13.95
2022-10-31T02:33:10.787Z,11.70
2022-10-31T02:35:51.144Z,13.90
2022-10-31T02:39:09.009Z,13.55
2022-10-31T02:41:41.383Z,12.02
2022-10-31T02:44:23.077Z,13.00
2022-10-31T02:46:53.853Z,11.00
2022-10-31T02:49:42.334Z,15.30
2022-10-31T02:52:18.825Z,13.10
2022-10-31T02:54:47.372Z,14.65
2022-10-31T02:57:15.900Z,11.70
2022-10-31T02:59:48.541Z,13.15
2022-10-31T03:02:20.934Z,13.83
2022-10-31T03:04:57.945Z,12.35
2022-10-31T03:07:43.333Z,9.98
2022-10-31T03:10:19.509Z,12.57
2022-10-31T03:13:11.735Z,12.85
2022-10-31T03:15:52.705Z,14.50
2022-10-31T03:18:25.950Z,11.50
2022-10-31T03:21:06.784Z,14.13
2022-10-31T03:23:36.521Z,10.95
2022-10-31T03:26:06.145Z,12.80
2022-10-31T03:28:44.359Z,16.00
2022-10-31T03:31:13.712Z,10.23
2022-10-31T03:33:43.392Z,10.77
2022-10-31T03:36:12.941Z,11.90
2022-10-31T03:38:41.751Z,13.65
2022-10-31T03:41:14.228Z,10.30
2022-10-31T03:43:47.246Z,13.75
2022-10-31T03:46:13.961Z,11.13
2022-10-31T03:48:40.635Z,9.57
2022-10-31T03:51:25.771Z,60.30
2022-10-31T03:54:14.208Z,20.53
2022-10-31T03:57:03.837Z,13.45
2022-10-31T03:59:37.622Z,11.50
2022-10-31T04:02:09.278Z,14.57
2022-10-31T04:04:37.935Z,13.23
2022-10-31T04:07:07.620Z,13.97
2022-10-31T04:09:37.755Z,11.93
2022-10-31T04:12:09.558Z,12.52
2022-10-31T04:14:40.122Z,13.23
2022-10-31T04:17:11.421Z,11.35
2022-10-31T04:19:38.080Z,9.40
2022-10-31T04:22:05.071Z,10.05
2022-10-31T04:24:31.714Z,16.02
2022-10-31T04:26:58.842Z,11.63
2022-10-31T04:29:25.440Z,11.07
2022-10-31T04:31:52.137Z,13.13
2022-10-31T04:34:18.735Z,12.93
2022-10-31T04:36:46.327Z,10.52
2022-10-31T04:39:12.898Z,12.57
2022-10-31T04:41:39.523Z,42.63
2022-10-31T04:44:06.827Z,17.80
2022-10-31T04:46:33.463Z,13.95
2022-10-31T04:49:00.095Z,14.65
2022-10-31T04:51:26.689Z,14.13
2022-10-31T04:53:53.272Z,12.25
2022-10-31T04:56:19.958Z,11.43
2022-10-31T04:58:46.555Z,11.82
2022-10-31T05:01:13.898Z,30.60
2022-10-31T05:03:40.623Z,24.08
2022-10-31T05:06:08.034Z,14.80
2022-10-31T05:08:34.727Z,11.37
2022-10-31T05:11:04.419Z,10.95
2022-10-31T05:13:31.938Z,12.65
2022-10-31T05:15:58.578Z,18.35
2022-10-31T05:18:25.235Z,14.32
2022-10-31T05:20:51.885Z,13.83
2022-10-31T05:23:18.498Z,14.18
2022-10-31T05:25:45.082Z,16.88
2022-10-31T05:28:11.687Z,17.40
2022-10-31T05:30:38.298Z,14.57
2022-10-31T05:33:04.880Z,17.80
2022-10-31T05:35:33.366Z,12.10
2022-10-31T05:38:00.718Z,17.75
2022-10-31T05:40:28.358Z,14.40
2022-10-31T05:42:57.280Z,14.25
2022-10-31T05:45:24.330Z,21.00
2022-10-31T05:47:56.189Z,17.92
2022-10-31T05:50:23.901Z,55.47
2022-10-31T05:52:57.136Z,17.25
2022-10-31T05:55:23.949Z,15.05
2022-10-31T05:57:50.553Z,15.23
2022-10-31T06:00:17.344Z,18.38
2022-10-31T06:02:43.925Z,17.75
2022-10-31T06:05:10.617Z,16.80
2022-10-31T06:07:37.560Z,22.38
2022-10-31T06:10:06.897Z,15.50
2022-10-31T06:12:38.396Z,13.20
2022-10-31T06:15:06.881Z,12.85
2022-10-31T06:17:34.960Z,10.80
2022-10-31T06:20:02.118Z,14.93
2022-10-31T06:22:29.107Z,16.67
2022-10-31T06:24:55.780Z,15.57
2022-10-31T06:27:22.661Z,15.35
2022-10-31T06:29:49.301Z,12.25
2022-10-31T06:32:16.600Z,12.30
2022-10-31T06:34:44.058Z,12.00
2022-10-31T06:37:13.005Z,14.32
2022-10-31T06:39:39.627Z,14.15
2022-10-31T06:42:06.226Z,11.70
2022-10-31T06:44:33.382Z,15.32
2022-10-31T06:47:00.135Z,13.17
2022-10-31T06:49:26.745Z,15.05
2022-10-31T06:51:53.439Z,15.18
2022-10-31T06:54:20.075Z,15.35
2022-10-31T06:56:48.121Z,15.90
2022-10-31T06:59:15.685Z,14.50
2022-10-31T07:01:42.588Z,12.35
2022-10-31T07:04:12.656Z,12.55
2022-10-31T07:06:39.469Z,13.18
2022-10-31T07:09:06.252Z,17.02
2022-10-31T07:11:32.873Z,15.37
2022-10-31T07:13:59.514Z,13.27
2022-10-31T07:16:26.188Z,13.02
2022-10-31T07:18:52.904Z,12.30
2022-10-31T07:21:19.564Z,18.80
2022-10-31T07:23:49.085Z,13.97
2022-10-31T07:26:15.831Z,11.82
2022-10-31T07:28:42.454Z,13.00
2022-10-31T07:31:09.045Z,15.07
2022-10-31T07:33:35.644Z,12.80
2022-10-31T07:36:02.221Z,9.47
2022-10-31T07:38:28.881Z,11.05
2022-10-31T07:40:55.518Z,11.38
2022-10-31T07:43:22.488Z,12.02
2022-10-31T07:45:53.539Z,16.33
2022-10-31T07:48:20.778Z,12.60
2022-10-31T07:50:47.740Z,11.57
2022-10-31T07:53:15.663Z,13.15
2022-10-31T07:55:42.814Z,11.95
2022-10-31T07:58:12.965Z,11.20
2022-10-31T08:00:42.119Z,10.40
2022-10-31T08:03:11.809Z,9.82
2022-10-31T08:05:39.268Z,8.98
2022-10-31T08:08:06.079Z,12.80
2022-10-31T08:10:34.172Z,13.18
2022-10-31T08:13:10.092Z,9.43
2022-10-31T08:15:39.126Z,12.38
2022-10-31T08:18:07.188Z,11.55
2022-10-31T08:20:34.124Z,10.43
2022-10-31T08:23:03.422Z,11.77
2022-10-31T08:25:35.358Z,9.67
2022-10-31T08:28:06.115Z,8.02
2022-10-31T08:30:35.476Z,10.32
2022-10-31T08:33:16.500Z,10.27
2022-10-31T08:35:43.473Z,10.80
2022-10-31T08:38:12.315Z,12.57
2022-10-31T08:40:39.529Z,11.35
2022-10-31T08:43:17.919Z,13.00
2022-10-31T08:45:48.241Z,10.65
2022-10-31T08:48:16.894Z,10.93
2022-10-31T08:50:45.123Z,12.77
2022-10-31T08:53:17.182Z,9.77
2022-10-31T08:55:45.532Z,12.20
2022-10-31T08:58:15.131Z,8.13
2022-10-31T09:00:42.509Z,11.32
2022-10-31T09:03:15.871Z,11.90
2022-10-31T09:05:42.891Z,9.52
2022-10-31T09:08:15.757Z,11.52
2022-10-31T09:10:44.121Z,11.25
2022-10-31T09:13:16.198Z,11.65
2022-10-31T09:15:44.954Z,10.17
2022-10-31T09:18:13.357Z,9.80
2022-10-31T09:20:41.563Z,14.73
2022-10-31T09:23:11.632Z,11.07
2022-10-31T09:25:38.907Z,10.63
2022-10-31T09:28:07.621Z,9.87
2022-10-31T09:30:36.104Z,12.20
2022-10-31T09:33:05.317Z,9.45
2022-10-31T09:35:32.626Z,12.50
2022-10-31T09:38:01.708Z,10.95
2022-10-31T09:40:35.144Z,9.83
2022-10-31T09:43:34.281Z,12.15
2022-10-31T09:46:27.583Z,15.07
2022-10-31T09:49:05.413Z,11.15
2022-10-31T09:51:35.883Z,10.77
2022-10-31T09:54:14.585Z,9.97
2022-10-31T09:56:41.467Z,11.27
2022-10-31T09:59:20.108Z,10.57
2022-10-31T10:01:56.223Z,10.95
2022-10-31T10:04:41.640Z,10.20
2022-10-31T10:07:20.385Z,10.60
2022-10-31T10:09:47.410Z,13.48
2022-10-31T10:12:29.980Z,11.55
2022-10-31T10:15:24.715Z,8.32
2022-10-31T10:18:06.153Z,8.85
2022-10-31T10:21:07.468Z,9.83
2022-10-31T10:23:55.794Z,8.27
2022-10-31T10:26:27.440Z,11.68
2022-10-31T10:29:22.251Z,8.43
2022-10-31T10:31:52.620Z,8.35
2022-10-31T10:34:27.409Z,9.10
2022-10-31T10:36:56.685Z,8.77
2022-10-31T10:39:41.521Z,9.43
2022-10-31T10:42:34.949Z,9.75
2022-10-31T10:45:33.424Z,11.50
2022-10-31T10:48:10.779Z,13.80
2022-10-31T10:50:42.561Z,10.50
2022-10-31T10:53:50.011Z,11.88
2022-10-31T10:56:32.120Z,9.68
2022-10-31T10:58:59.053Z,11.57
2022-10-31T11:01:26.293Z,11.47
2022-10-31T11:03:52.907Z,10.35
2022-10-31T11:06:26.695Z,15.05
2022-10-31T11:08:54.297Z,10.75
2022-10-31T11:11:26.825Z,11.02
2022-10-31T11:14:01.087Z,13.47
2022-10-31T11:16:27.744Z,15.00
2022-10-31T11:18:54.918Z,14.45
2022-10-31T11:21:26.652Z,12.15
2022-10-31T11:24:11.667Z,14.38
2022-10-31T11:26:40.319Z,11.90
2022-10-31T11:29:14.565Z,11.65
2022-10-31T11:31:41.683Z,12.48
2022-10-31T11:34:35.474Z,12.63
2022-10-31T11:37:17.099Z,17.42
2022-10-31T11:39:54.404Z,14.13
2022-10-31T11:42:37.606Z,14.80
2022-10-31T11:45:15.380Z,17.63
2022-10-31T11:47:47.321Z,9.48
2022-10-31T11:50:22.911Z,12.85
2022-10-31T11:52:50.579Z,12.80
2022-10-31T11:55:39.259Z,13.25
2022-10-31T11:58:20.326Z,19.17
2022-10-31T12:00:54.142Z,16.98
2022-10-31T12:03:23.698Z,11.50
2022-10-31T12:06:20.589Z,15.43
2022-10-31T12:08:47.664Z,14.50
2022-10-31T12:11:38.782Z,11.23
2022-10-31T12:14:14.187Z,13.15
2022-10-31T12:16:51.893Z,10.18
2022-10-31T12:19:36.022Z,11.40
2022-10-31T12:22:20.876Z,16.90
2022-10-31T12:25:06.695Z,10.88
2022-10-31T12:27:41.979Z,12.82
2022-10-31T12:30:21.108Z,12.40
2022-10-31T12:33:12.299Z,13.70
2022-10-31T12:35:56.227Z,13.55
2022-10-31T12:38:40.379Z,11.02
2022-10-31T12:41:37.412Z,12.85
2022-10-31T12:44:16.836Z,11.40
2022-10-31T12:47:01.056Z,12.33
2022-10-31T12:49:45.642Z,10.55
2022-10-31T12:52:28.003Z,17.35
2022-10-31T12:55:20.671Z,9.18
2022-10-31T12:57:53.592Z,8.75
2022-10-31T13:00:22.615Z,12.80
2022-10-31T13:03:12.046Z,10.90
2022-10-31T13:05:42.071Z,8.88
2022-10-31T13:08:17.310Z,14.05
2022-10-31T13:11:33.382Z,15.38
2022-10-31T13:14:19.597Z,10.97
2022-10-31T13:16:48.769Z,12.32
2022-10-31T13:19:23.282Z,9.80
2022-10-31T13:22:13.999Z,9.38
2022-10-31T13:24:45.370Z,10.30
2022-10-31T13:27:39.918Z,9.63
2022-10-31T13:30:17.416Z,14.50
2022-10-31T13:33:14.977Z,11.35
2022-10-31T13:35:41.557Z,11.77
2022-10-31T13:38:31.885Z,11.63
2022-10-31T13:41:03.320Z,15.90
2022-10-31T13:43:40.911Z,8.35
2022-10-31T13:46:27.063Z,8.45
2022-10-31T13:48:53.782Z,7.07
2022-10-31T13:51:36.044Z,6.97
2022-10-31T13:54:20.172Z,11.90
2022-10-31T13:56:51.317Z,9.35
2022-10-31T13:59:22.096Z,9.23
2022-10-31T14:01:58.284Z,11.00
2022-10-31T14:04:29.116Z,12.48
2022-10-31T14:07:09.008Z,8.63
2022-10-31T14:10:21.237Z,12.48
2022-10-31T14:12:49.855Z,8.85
2022-10-31T14:15:20.909Z,12.35
2022-10-31T14:17:53.462Z,17.20
2022-10-31T14:20:20.606Z,13.17
2022-10-31T14:22:47.325Z,15.02
2022-10-31T14:25:36.224Z,10.80
2022-10-31T14:28:19.829Z,10.23
2022-10-31T14:30:58.619Z,7.57
2022-10-31T14:33:28.766Z,8.77
2022-10-31T14:36:07.080Z,10.25
2022-10-31T14:39:01.726Z,7.95
2022-10-31T14:42:25.447Z,10.77
2022-10-31T14:45:23.457Z,9.77
2022-10-31T14:48:17.228Z,10.93
2022-10-31T14:50:50.168Z,9.15
2022-10-31T14:53:30.366Z,10.50
2022-10-31T14:56:01.498Z,9.77
2022-10-31T14:58:47.227Z,8.57
2022-10-31T15:01:35.915Z,20.50
2022-10-31T15:04:23.592Z,18.45
2022-10-31T15:06:58.852Z,9.63
2022-10-31T15:09:31.567Z,10.90
2022-10-31T15:12:15.767Z,15.43
2022-10-31T15:14:42.367Z,8.90
2022-10-31T15:17:12.555Z,12.13
2022-10-31T15:19:39.855Z,13.10
2022-10-31T15:22:06.672Z,9.13
2022-10-31T15:24:38.423Z,12.05
2022-10-31T15:27:05.893Z,11.73
2022-10-31T15:29:32.542Z,9.68
2022-10-31T15:32:01.526Z,8.98
2022-10-31T15:34:40.377Z,10.68
2022-10-31T15:37:15.689Z,11.45
2022-10-31T15:39:43.811Z,10.40
2022-10-31T15:42:24.790Z,12.32
2022-10-31T15:45:06.027Z,13.15
2022-10-31T15:47:33.838Z,10.82
2022-10-31T15:50:02.790Z,14.73
2022-10-31T15:52:36.041Z,17.17
2022-10-31T15:55:17.581Z,18.15
2022-10-31T15:57:48.693Z,22.38
2022-10-31T16:00:24.830Z,14.50
2022-10-31T16:03:02.228Z,12.30
2022-10-31T16:05:38.236Z,11.30
2022-10-31T16:08:05.773Z,18.75
2022-10-31T16:10:36.224Z,14.30
2022-10-31T16:13:04.015Z,11.55
2022-10-31T16:15:30.880Z,10.50
2022-10-31T16:18:01.437Z,12.43
2022-10-31T16:20:32.923Z,13.43
2022-10-31T16:23:00.495Z,23.67
2022-10-31T16:25:29.753Z,15.75
2022-10-31T16:28:05.233Z,17.85
2022-10-31T16:30:42.789Z,13.90
2022-10-31T16:33:25.406Z,15.85
2022-10-31T16:35:56.116Z,15.32
2022-10-31T16:38:31.072Z,12.90
2022-10-31T16:40:57.800Z,12.90
2022-10-31T16:43:24.991Z,14.57
2022-10-31T16:45:52.992Z,18.20
2022-10-31T16:48:22.437Z,18.65
2022-10-31T16:50:50.599Z,20.88
2022-10-31T16:53:18.419Z,18.35
2022-10-31T16:56:04.825Z,30.13
2022-10-31T16:58:36.052Z,32.70
2022-10-31T17:01:05.748Z,25.52
2022-10-31T17:03:32.507Z,20.33
2022-10-31T17:05:59.108Z,23.65
2022-10-31T17:08:26.237Z,23.63
2022-10-31T17:10:55.478Z,17.05
2022-10-31T17:13:29.996Z,19.15
2022-10-31T17:15:59.848Z,18.23
2022-10-31T17:18:27.830Z,20.48
2022-10-31T17:21:02.602Z,29.50
2022-10-31T17:23:29.931Z,23.08
2022-10-31T17:25:57.074Z,30.95
2022-10-31T17:28:23.786Z,21.63
2022-10-31T17:30:50.541Z,25.58
2022-10-31T17:33:17.669Z,30.90
2022-10-31T17:35:45.146Z,28.20
2022-10-31T17:38:12.421Z,29.15
2022-10-31T17:40:42.133Z,28.38
2022-10-31T17:43:10.357Z,30.23
2022-10-31T17:45:39.792Z,36.77
2022-10-31T17:48:06.910Z,27.58
2022-10-31T17:50:33.668Z,28.08
2022-10-31T17:53:00.648Z,29.58
2022-10-31T17:55:28.411Z,33.65
2022-10-31T17:57:57.211Z,26.53
2022-10-31T18:00:24.830Z,31.15
2022-10-31T18:02:51.774Z,28.35
2022-10-31T18:05:18.526Z,33.08
2022-10-31T18:07:45.455Z,27.60
2022-10-31T18:10:12.181Z,30.83
2022-10-31T18:12:39.221Z,30.70
2022-10-31T18:15:06.390Z,29.08
2022-10-31T18:17:34.912Z,36.15
2022-10-31T18:20:03.915Z,56.88
2022-10-31T18:22:30.511Z,58.40
2022-10-31T18:25:01.814Z,39.58
2022-10-31T18:27:28.969Z,45.17
2022-10-31T18:29:55.717Z,37.38
2022-10-31T18:32:22.340Z,37.17
2022-10-31T18:34:49.035Z,46.53
2022-10-31T18:37:15.685Z,45.17
2022-10-31T18:39:42.331Z,36.35
2022-10-31T18:42:08.951Z,37.85
2022-10-31T18:44:35.591Z,33.80
2022-10-31T18:47:02.227Z,36.90
2022-10-31T18:49:32.657Z,39.50
2022-10-31T18:51:59.984Z,38.28
2022-10-31T18:54:26.692Z,34.58
2022-10-31T18:56:53.480Z,32.78
2022-10-31T18:59:20.103Z,30.67
2022-10-31T19:01:46.951Z,36.92
2022-10-31T19:04:14.142Z,38.55
2022-10-31T19:06:40.860Z,37.03
2022-10-31T19:09:11.052Z,44.33
2022-10-31T19:11:38.550Z,39.23
2022-10-31T19:14:06.419Z,34.47
2022-10-31T19:16:33.025Z,31.95
2022-10-31T19:19:00.083Z,40.20
2022-10-31T19:21:27.386Z,39.17
2022-10-31T19:23:56.141Z,34.60
2022-10-31T19:26:22.906Z,32.85
2022-10-31T19:28:49.577Z,34.45
2022-10-31T19:31:16.354Z,41.17
2022-10-31T19:33:42.937Z,38.25
2022-10-31T19:36:14.919Z,33.80
2022-10-31T19:38:44.539Z,36.28
2022-10-31T19:41:23.790Z,39.97
2022-10-31T19:43:50.604Z,33.78
2022-10-31T19:46:22.718Z,33.92
2022-10-31T19:49:01.119Z,36.23
2022-10-31T19:51:28.153Z,36.50
2022-10-31T19:53:54.866Z,46.08
2022-10-31T19:56:23.586Z,40.95
2022-10-31T19:58:51.657Z,39.60
2022-10-31T20:01:21.503Z,42.17
2022-10-31T20:03:49.154Z,35.42
2022-10-31T20:06:23.551Z,37.25
2022-10-31T20:08:50.614Z,36.72
2022-10-31T20:11:17.338Z,34.97
2022-10-31T20:13:44.088Z,32.57
2022-10-31T20:16:12.642Z,31.30
2022-10-31T20:18:39.819Z,34.33
2022-10-31T20:21:18.746Z,31.35
2022-10-31T20:23:47.373Z,64.22
2022-10-31T20:26:17.597Z,55.40
2022-10-31T20:28:44.646Z,36.55
2022-10-31T20:31:14.080Z,37.17
2022-10-31T20:33:40.771Z,36.88
2022-10-31T20:36:08.539Z,35.83
2022-10-31T20:38:39.759Z,37.10
2022-10-31T20:41:09.604Z,39.08
2022-10-31T20:43:36.844Z,37.50
2022-10-31T20:46:10.650Z,35.75
2022-10-31T20:48:37.673Z,35.60
2022-10-31T20:51:07.174Z,36.47
2022-10-31T20:53:34.312Z,32.78
2022-10-31T20:56:10.037Z,36.22
2022-10-31T20:58:38.011Z,33.58
2022-10-31T21:01:07.931Z,33.95
2022-10-31T21:03:36.518Z,34.70
2022-10-31T21:06:05.030Z,38.72
2022-10-31T21:08:32.814Z,33.50
2022-10-31T21:11:00.569Z,36.15
2022-10-31T21:13:31.870Z,37.35
2022-10-31T21:16:06.662Z,33.00
2022-10-31T21:18:37.855Z,33.95
2022-10-31T21:21:14.279Z,34.35
2022-10-31T21:23:42.917Z,33.92
2022-10-31T21:26:17.935Z,33.67
2022-10-31T21:28:44.952Z,33.03
2022-10-31T21:31:14.646Z,30.35
2022-10-31T21:33:41.855Z,46.42
2022-10-31T21:36:09.130Z,44.78
2022-10-31T21:38:36.296Z,48.13
2022-10-31T21:41:06.250Z,42.50
2022-10-31T21:43:36.573Z,42.45
2022-10-31T21:46:17.602Z,44.10
2022-10-31T21:48:45.448Z,39.85
2022-10-31T21:51:24.027Z,36.50
2022-10-31T21:54:09.897Z,41.87
2022-10-31T21:56:36.904Z,34.50
2022-10-31T21:59:05.100Z,33.25
2022-10-31T22:01:32.086Z,34.85
2022-10-31T22:03:59.374Z,35.20
2022-10-31T22:06:27.327Z,35.57
2022-10-31T22:08:54.403Z,32.38
2022-10-31T22:11:21.849Z,36.47
2022-10-31T22:13:49.691Z,34.55
2022-10-31T22:16:18.867Z,37.70
2022-10-31T22:18:46.244Z,38.67
2022-10-31T22:21:18.252Z,35.00
2022-10-31T22:23:53.216Z,35.47
2022-10-31T22:26:19.947Z,38.40
2022-10-31T22:28:49.859Z,37.10
2022-10-31T22:31:18.877Z,34.43
2022-10-31T22:33:46.817Z,36.67
2022-10-31T22:36:16.857Z,34.67
2022-10-31T22:38:44.681Z,32.90
2022-10-31T22:41:16.976Z,34.35
2022-10-31T22:43:43.979Z,31.67
2022-10-31T22:46:20.517Z,33.00
2022-10-31T22:48:49.954Z,35.15
2022-10-31T22:51:21.928Z,34.50
2022-10-31T22:53:49.073Z,34.58
2022-10-31T22:56:19.115Z,31.97
2022-10-31T22:58:46.659Z,34.47
2022-10-31T23:01:15.028Z,33.42
2022-10-31T23:03:42.447Z,31.70
2022-10-31T23:06:12.440Z,32.83
2022-10-31T23:08:39.511Z,33.80
2022-10-31T23:11:48.244Z,33.22
2022-10-31T23:14:20.758Z,33.75
2022-10-31T23:16:55.914Z,30.10
2022-10-31T23:19:31.617Z,32.70
2022-10-31T23:22:04.061Z,36.20
2022-10-31T23:24:41.739Z,32.28
2022-10-31T23:27:17.570Z,32.20
2022-10-31T23:29:57.348Z,35.70
2022-10-31T23:32:25.830Z,33.75
2022-10-31T23:34:57.358Z,40.77
2022-10-31T23:37:26.895Z,31.35
2022-10-31T23:39:53.802Z,36.25
2022-10-31T23:42:21.034Z,37.33
2022-10-31T23:44:47.917Z,34.45
2022-10-31T23:47:15.170Z,32.20
2022-10-31T23:49:41.976Z,37.33
2022-10-31T23:52:09.265Z,36.45
2022-10-31T23:54:36.298Z,35.42
2022-10-31T23:57:03.377Z,34.85
2022-10-31T23:59:30.574Z,32.97
